createdAt,value
2023-05-03T00:00:24.580Z,9.42
2023-05-03T00:01:25.504Z,9.49
2023-05-03T00:02:26.459Z,9.51
2023-05-03T00:03:26.816Z,9.49
2023-05-03T00:04:27.189Z,9.59
2023-05-03T00:05:28.348Z,9.63
2023-05-03T00:06:28.760Z,9.51
2023-05-03T00:07:28.846Z,9.52
2023-05-03T00:08:29.748Z,9.54
2023-05-03T00:09:30.255Z,9.54
2023-05-03T00:10:31.039Z,9.52
2023-05-03T00:11:31.747Z,9.56
2023-05-03T00:12:32.086Z,9.56
2023-05-03T00:13:32.803Z,9.59
2023-05-03T00:14:33.378Z,9.54
2023-05-03T00:15:33.783Z,9.51
2023-05-03T00:16:34.194Z,9.55
2023-05-03T00:17:35.182Z,9.59
2023-05-03T00:18:36.129Z,9.52
2023-05-03T00:19:37.542Z,9.55
2023-05-03T00:21:36.982Z,9.48
2023-05-03T00:22:37.902Z,9.45
2023-05-03T00:23:38.380Z,9.48
2023-05-03T00:24:38.997Z,9.51
2023-05-03T00:25:39.978Z,9.44
2023-05-03T00:26:40.256Z,9.44
2023-05-03T00:27:40.802Z,9.47
2023-05-03T00:28:41.752Z,9.37
2023-05-03T00:29:42.473Z,9.44
2023-05-03T00:30:43.227Z,9.36
2023-05-03T00:31:44.184Z,9.42
2023-05-03T00:32:44.888Z,9.33
2023-05-03T00:33:44.746Z,9.34
2023-05-03T00:34:45.816Z,9.34
2023-05-03T00:35:46.328Z,9.33
2023-05-03T00:36:47.023Z,9.31
2023-05-03T00:37:47.743Z,9.3
2023-05-03T00:38:48.084Z,9.37
2023-05-03T00:39:48.624Z,9.36
2023-05-03T00:40:49.581Z,9.3
2023-05-03T00:41:50.288Z,9.29
2023-05-03T00:42:50.940Z,9.27
2023-05-03T00:43:50.951Z,9.36
2023-05-03T00:44:54.022Z,9.29
2023-05-03T00:46:04.872Z,9.27
2023-05-03T00:46:53.150Z,9.21
2023-05-03T00:47:53.910Z,9.29
2023-05-03T00:48:54.212Z,9.16
2023-05-03T00:49:54.952Z,9.11
2023-05-03T00:50:55.045Z,9.19
2023-05-03T00:51:55.566Z,9.19
2023-05-03T00:52:55.894Z,9.12
2023-05-03T00:53:56.395Z,9.11
2023-05-03T00:54:57.177Z,9.09
2023-05-03T00:55:58.177Z,9.11
2023-05-03T00:56:59.343Z,9.11
2023-05-03T00:58:00.229Z,9.09
2023-05-03T00:59:01.012Z,9.12
2023-05-03T01:00:02.502Z,9.08
2023-05-03T01:01:02.402Z,9.03
2023-05-03T01:02:03.677Z,9.08
2023-05-03T01:03:04.097Z,9.11
2023-05-03T01:04:04.216Z,9.08
2023-05-03T01:05:04.560Z,9.05
2023-05-03T01:06:04.930Z,9.03
2023-05-03T01:07:05.647Z,8.97
2023-05-03T01:08:06.735Z,9
2023-05-03T01:09:07.216Z,8.97
2023-05-03T01:10:08.198Z,8.97
2023-05-03T01:11:08.109Z,8.9
2023-05-03T01:12:08.826Z,8.95
2023-05-03T01:13:09.541Z,8.95
2023-05-03T01:14:10.696Z,8.9
2023-05-03T01:15:11.143Z,8.84
2023-05-03T01:16:11.816Z,8.86
2023-05-03T01:17:12.490Z,8.86
2023-05-03T01:18:13.457Z,8.77
2023-05-03T01:19:13.400Z,8.82
2023-05-03T01:20:14.212Z,8.74
2023-05-03T01:21:15.204Z,8.72
2023-05-03T01:22:15.949Z,8.77
2023-05-03T01:23:17.104Z,8.69
2023-05-03T01:24:17.412Z,8.72
2023-05-03T01:25:18.229Z,8.71
2023-05-03T01:26:18.537Z,8.71
2023-05-03T01:27:19.232Z,8.71
2023-05-03T01:28:19.979Z,8.75
2023-05-03T01:29:20.713Z,8.64
2023-05-03T01:30:21.409Z,8.64
2023-05-03T01:31:22.222Z,8.66
2023-05-03T01:32:22.709Z,8.63
2023-05-03T01:33:23.257Z,8.59
2023-05-03T01:34:23.962Z,8.59
2023-05-03T01:35:24.370Z,8.6
2023-05-03T01:36:24.652Z,8.63
2023-05-03T01:37:25.605Z,8.61
2023-05-03T01:38:26.547Z,8.54
2023-05-03T01:39:27.049Z,8.53
2023-05-03T01:40:27.737Z,8.56
2023-05-03T01:41:28.204Z,8.57
2023-05-03T01:42:28.546Z,8.52
2023-05-03T01:43:29.064Z,8.42
2023-05-03T01:44:29.994Z,8.52
2023-05-03T01:45:30.472Z,8.39
2023-05-03T01:46:31.846Z,8.41
2023-05-03T01:47:31.880Z,8.42
2023-05-03T01:48:32.345Z,8.42
2023-05-03T01:49:32.621Z,8.46
2023-05-03T01:50:33.512Z,8.34
2023-05-03T01:51:34.189Z,8.38
2023-05-03T01:52:34.892Z,8.41
2023-05-03T01:53:35.016Z,8.41
2023-05-03T01:54:35.520Z,8.52
2023-05-03T01:55:36.145Z,8.44
2023-05-03T01:56:37.072Z,8.38
2023-05-03T01:57:37.764Z,8.41
2023-05-03T01:58:38.270Z,8.35
2023-05-03T01:59:39.267Z,8.46
2023-05-03T02:00:39.792Z,8.38
2023-05-03T02:01:40.806Z,8.38
2023-05-03T02:02:40.540Z,8.41
2023-05-03T02:03:41.587Z,8.35
2023-05-03T02:04:42.349Z,8.41
2023-05-03T02:05:42.978Z,8.39
2023-05-03T02:06:44.113Z,8.41
2023-05-03T02:07:44.822Z,8.41
2023-05-03T02:08:45.732Z,8.49
2023-05-03T02:09:46.247Z,8.39
2023-05-03T02:10:46.735Z,8.41
2023-05-03T02:11:47.292Z,8.32
2023-05-03T02:12:47.993Z,8.28
2023-05-03T02:13:47.904Z,8.26
2023-05-03T02:14:48.020Z,8.26
2023-05-03T02:15:48.451Z,8.18
2023-05-03T02:16:49.391Z,8.24
2023-05-03T02:17:49.950Z,8.24
2023-05-03T02:18:49.872Z,8.14
2023-05-03T02:19:50.785Z,8.14
2023-05-03T02:20:52.139Z,8.17
2023-05-03T02:21:52.653Z,8.23
2023-05-03T02:22:53.763Z,8.14
2023-05-03T02:23:54.485Z,8.17
2023-05-03T02:24:54.488Z,8.17
2023-05-03T02:25:55.130Z,8.26
2023-05-03T02:26:56.027Z,8.16
2023-05-03T02:27:56.514Z,8.16
2023-05-03T02:28:57.213Z,8.14
2023-05-03T02:29:57.003Z,8.27
2023-05-03T02:30:58.286Z,8.23
2023-05-03T02:31:59.395Z,8.31
2023-05-03T02:33:00.463Z,8.26
2023-05-03T02:34:01.121Z,8.34
2023-05-03T02:35:01.422Z,8.27
2023-05-03T02:36:02.245Z,8.34
2023-05-03T02:37:02.956Z,8.31
2023-05-03T02:38:03.731Z,8.41
2023-05-03T02:39:04.108Z,8.34
2023-05-03T02:40:05.593Z,8.44
2023-05-03T02:41:05.493Z,8.45
2023-05-03T02:42:05.608Z,8.38
2023-05-03T02:43:06.126Z,8.35
2023-05-03T02:44:06.846Z,8.34
2023-05-03T02:45:07.802Z,8.46
2023-05-03T02:46:08.144Z,8.39
2023-05-03T02:47:08.766Z,8.45
2023-05-03T02:48:09.594Z,8.42
2023-05-03T02:49:09.757Z,8.38
2023-05-03T02:50:10.931Z,8.38
2023-05-03T02:51:11.432Z,8.38
2023-05-03T02:52:11.780Z,8.35
2023-05-03T02:53:12.773Z,8.28
2023-05-03T02:54:13.682Z,8.34
2023-05-03T02:55:14.196Z,8.26
2023-05-03T02:56:14.630Z,8.27
2023-05-03T02:57:15.391Z,8.26
2023-05-03T02:58:16.370Z,8.18
2023-05-03T02:59:16.081Z,8.26
2023-05-03T03:00:17.034Z,8.17
2023-05-03T03:01:17.090Z,8.2
2023-05-03T03:02:18.188Z,8.2
2023-05-03T03:03:19.108Z,8.21
2023-05-03T03:04:19.437Z,8.13
2023-05-03T03:05:20.177Z,8.21
2023-05-03T03:06:20.967Z,8.21
2023-05-03T03:07:20.958Z,8.06
2023-05-03T03:08:21.669Z,8.08
2023-05-03T03:09:22.241Z,8.16
2023-05-03T03:10:22.914Z,8.11
2023-05-03T03:11:23.217Z,8.08
2023-05-03T03:12:23.723Z,8.08
2023-05-03T03:13:24.429Z,8.13
2023-05-03T03:14:25.121Z,8.13
2023-05-03T03:15:25.851Z,8.13
2023-05-03T03:16:26.480Z,8.14
2023-05-03T03:17:26.344Z,8.14
2023-05-03T03:18:26.957Z,8.08
2023-05-03T03:19:27.890Z,8.13
2023-05-03T03:20:28.604Z,8.09
2023-05-03T03:21:28.905Z,8.14
2023-05-03T03:22:29.591Z,8.08
2023-05-03T03:23:30.089Z,8.09
2023-05-03T03:24:30.620Z,8.11
2023-05-03T03:25:31.309Z,8.14
2023-05-03T03:26:31.930Z,8.16
2023-05-03T03:27:32.831Z,8.13
2023-05-03T03:28:33.320Z,8.11
2023-05-03T03:29:34.535Z,8.08
2023-05-03T03:30:35.271Z,8.08
2023-05-03T03:31:36.096Z,8.14
2023-05-03T03:32:36.164Z,8.08
2023-05-03T03:33:36.800Z,8.13
2023-05-03T03:34:37.399Z,8.06
2023-05-03T03:35:38.094Z,8.08
2023-05-03T03:36:38.344Z,8.09
2023-05-03T03:37:38.250Z,8.11
2023-05-03T03:38:38.790Z,8.06
2023-05-03T03:39:39.526Z,8.09
2023-05-03T03:40:40.042Z,8.13
2023-05-03T03:41:40.553Z,8.14
2023-05-03T03:42:41.042Z,8.08
2023-05-03T03:43:41.733Z,8.11
2023-05-03T03:44:42.418Z,8.13
2023-05-03T03:45:43.137Z,8.13
2023-05-03T03:46:43.739Z,8.14
2023-05-03T03:47:44.449Z,8.03
2023-05-03T03:48:44.982Z,8.06
2023-05-03T03:49:45.679Z,8.09
2023-05-03T03:50:46.565Z,8.09
2023-05-03T03:51:47.276Z,8.05
2023-05-03T03:52:48.231Z,8.03
2023-05-03T03:53:48.773Z,8.06
2023-05-03T03:54:49.496Z,8.06
2023-05-03T03:55:49.986Z,8.08
2023-05-03T03:56:50.002Z,8.03
2023-05-03T03:57:50.467Z,8.05
2023-05-03T03:58:51.214Z,8.02
2023-05-03T03:59:52.337Z,8.05
2023-05-03T04:00:52.209Z,7.95
2023-05-03T04:01:53.176Z,7.93
2023-05-03T04:02:54.134Z,8.02
2023-05-03T04:03:54.914Z,8.01
2023-05-03T04:04:54.873Z,7.93
2023-05-03T04:05:55.761Z,7.93
2023-05-03T04:06:56.713Z,7.98
2023-05-03T04:07:56.818Z,8.02
2023-05-03T04:08:57.344Z,7.95
2023-05-03T04:09:58.321Z,8.09
2023-05-03T04:10:59.176Z,8.06
2023-05-03T04:12:00.080Z,7.91
2023-05-03T04:13:00.520Z,7.95
2023-05-03T04:14:01.216Z,7.95
2023-05-03T04:15:01.936Z,7.88
2023-05-03T04:16:05.081Z,7.91
2023-05-03T04:18:04.723Z,7.95
2023-05-03T04:19:04.541Z,7.95
2023-05-03T04:20:05.396Z,7.95
2023-05-03T04:21:05.062Z,7.95
2023-05-03T04:22:05.587Z,7.98
2023-05-03T04:23:06.689Z,7.91
2023-05-03T04:24:07.659Z,7.91
2023-05-03T04:25:08.618Z,7.93
2023-05-03T04:26:27.723Z,7.96
2023-05-03T04:28:18.502Z,7.98
2023-05-03T04:29:19.200Z,8.03
2023-05-03T04:30:19.923Z,7.91
2023-05-03T04:31:20.977Z,7.91
2023-05-03T04:32:21.806Z,7.98
2023-05-03T04:33:22.365Z,8.02
2023-05-03T04:34:23.091Z,8.05
2023-05-03T04:35:23.607Z,8.02
2023-05-03T04:36:24.317Z,8.05
2023-05-03T04:37:24.494Z,8.17
2023-05-03T04:38:25.188Z,8.17
2023-05-03T04:39:25.704Z,8.02
2023-05-03T04:40:26.195Z,8.11
2023-05-03T04:41:26.769Z,8.08
2023-05-03T04:42:27.152Z,8.06
2023-05-03T04:43:28.084Z,8.06
2023-05-03T04:44:28.409Z,8.11
2023-05-03T04:45:28.880Z,8.06
2023-05-03T04:46:29.961Z,8.08
2023-05-03T04:47:30.689Z,8.08
2023-05-03T04:48:31.151Z,8.05
2023-05-03T04:49:31.457Z,8.11
2023-05-03T04:50:32.033Z,8.09
2023-05-03T04:51:31.918Z,8.14
2023-05-03T04:52:32.630Z,8.08
2023-05-03T04:53:33.364Z,8.16
2023-05-03T04:54:34.513Z,8.06
2023-05-03T04:55:34.436Z,8.09
2023-05-03T04:56:35.158Z,8.13
2023-05-03T04:57:35.380Z,8.06
2023-05-03T04:58:35.693Z,8.17
2023-05-03T04:59:36.244Z,8.14
2023-05-03T05:00:36.738Z,8.2
2023-05-03T05:01:37.599Z,8.17
2023-05-03T05:02:38.499Z,8.17
2023-05-03T05:03:39.381Z,8.2
2023-05-03T05:04:39.580Z,8.2
2023-05-03T05:05:39.396Z,8.23
2023-05-03T05:06:40.173Z,8.31
2023-05-03T05:07:40.293Z,8.23
2023-05-03T05:08:40.551Z,8.35
2023-05-03T05:09:41.279Z,8.32
2023-05-03T05:10:42.193Z,8.32
2023-05-03T05:11:42.682Z,8.44
2023-05-03T05:12:43.442Z,8.35
2023-05-03T05:13:44.192Z,8.35
2023-05-03T05:14:43.929Z,8.42
2023-05-03T05:15:44.468Z,8.38
2023-05-03T05:16:45.954Z,8.36
2023-05-03T05:17:47.126Z,8.44
2023-05-03T05:18:49.102Z,8.53
2023-05-03T05:19:47.810Z,8.6
2023-05-03T05:20:48.513Z,8.52
2023-05-03T05:21:49.001Z,8.61
2023-05-03T05:22:49.666Z,8.57
2023-05-03T05:23:50.368Z,8.66
2023-05-03T05:24:50.493Z,8.66
2023-05-03T05:25:51.003Z,8.66
2023-05-03T05:26:50.940Z,8.75
2023-05-03T05:28:51.410Z,8.78
2023-05-03T05:29:51.909Z,8.74
2023-05-03T05:30:52.891Z,8.78
2023-05-03T05:31:54.121Z,8.89
2023-05-03T05:32:54.078Z,8.86
2023-05-03T05:33:55.062Z,8.81
2023-05-03T05:34:55.872Z,8.93
2023-05-03T05:35:56.510Z,8.95
2023-05-03T05:36:57.231Z,9.03
2023-05-03T05:37:58.043Z,8.87
2023-05-03T05:38:58.802Z,9
2023-05-03T05:39:59.520Z,9.03
2023-05-03T05:40:59.680Z,9.11
2023-05-03T05:42:00.292Z,9.15
2023-05-03T05:43:01.030Z,9.16
2023-05-03T05:44:01.755Z,9.24
2023-05-03T05:45:02.695Z,9.18
2023-05-03T05:46:02.591Z,9.29
2023-05-03T05:47:04.203Z,9.19
2023-05-03T05:48:04.773Z,9.21
2023-05-03T05:49:05.586Z,9.27
2023-05-03T05:50:18.888Z,9.3
2023-05-03T05:51:06.293Z,9.37
2023-05-03T05:52:06.814Z,9.3
2023-05-03T05:53:07.515Z,9.36
2023-05-03T05:54:08.243Z,9.48
2023-05-03T05:55:09.160Z,9.42
2023-05-03T05:56:09.878Z,9.56
2023-05-03T05:57:10.572Z,9.52
2023-05-03T05:58:10.832Z,9.51
2023-05-03T05:59:11.318Z,9.55
2023-05-03T06:00:12.017Z,9.54
2023-05-03T06:01:11.793Z,9.58
2023-05-03T06:02:13.091Z,9.69
2023-05-03T06:03:13.210Z,9.67
2023-05-03T06:04:13.504Z,9.62
2023-05-03T06:05:14.337Z,9.64
2023-05-03T06:06:15.287Z,9.67
2023-05-03T06:07:15.223Z,9.63
2023-05-03T06:08:15.635Z,9.74
2023-05-03T06:09:30.022Z,9.8
2023-05-03T06:11:17.949Z,9.95
2023-05-03T06:12:18.660Z,10.05
2023-05-03T06:13:19.561Z,10.05
2023-05-03T06:14:19.917Z,10.07
2023-05-03T06:15:20.473Z,10.15
2023-05-03T06:16:21.410Z,10.21
2023-05-03T06:17:21.776Z,10.18
2023-05-03T06:18:22.328Z,10.3
2023-05-03T06:19:22.852Z,10.39
2023-05-03T06:20:23.553Z,10.38
2023-05-03T06:21:23.654Z,10.46
2023-05-03T06:22:24.586Z,10.51
2023-05-03T06:23:25.675Z,10.53
2023-05-03T06:24:26.400Z,10.48
2023-05-03T06:25:26.766Z,10.46
2023-05-03T06:26:27.325Z,10.57
2023-05-03T06:27:28.043Z,10.51
2023-05-03T06:28:28.968Z,10.57
2023-05-03T06:29:29.456Z,10.55
2023-05-03T06:30:30.176Z,10.48
2023-05-03T06:31:30.581Z,10.42
2023-05-03T06:32:31.021Z,10.36
2023-05-03T06:33:32.098Z,10.28
2023-05-03T06:34:33.005Z,10.24
2023-05-03T06:35:33.519Z,10.24
2023-05-03T06:36:34.450Z,10.23
2023-05-03T06:37:34.388Z,10.25
2023-05-03T06:38:34.826Z,10.24
2023-05-03T06:39:35.102Z,10.25
2023-05-03T06:40:38.520Z,10.3
2023-05-03T06:41:36.321Z,10.34
2023-05-03T06:42:36.648Z,10.38
2023-05-03T06:43:37.172Z,10.38
2023-05-03T06:44:38.280Z,10.55
2023-05-03T06:45:38.831Z,10.58
2023-05-03T06:46:39.778Z,10.55
2023-05-03T06:47:40.453Z,10.64
2023-05-03T06:48:40.918Z,10.61
2023-05-03T06:49:41.290Z,10.69
2023-05-03T06:50:42.025Z,10.8
2023-05-03T06:51:42.970Z,10.97
2023-05-03T06:52:43.866Z,10.95
2023-05-03T06:53:44.593Z,11.07
2023-05-03T06:54:45.213Z,11.16
2023-05-03T06:55:46.203Z,11.34
2023-05-03T06:56:47.278Z,11.48
2023-05-03T06:57:47.973Z,11.53
2023-05-03T06:58:48.759Z,11.67
2023-05-03T06:59:49.245Z,11.77
2023-05-03T07:00:50.262Z,12.18
2023-05-03T07:01:51.431Z,12.57
2023-05-03T07:02:51.786Z,13.2
2023-05-03T07:03:53.242Z,13.75
2023-05-03T07:04:53.616Z,14.33
2023-05-03T07:05:53.941Z,14.99
2023-05-03T07:07:00.798Z,15.5
2023-05-03T07:09:56.691Z,16.59
2023-05-03T07:10:57.260Z,16.64
2023-05-03T07:11:58.055Z,16.34
2023-05-03T07:12:58.789Z,16.17
2023-05-03T07:13:58.696Z,15.85
2023-05-03T07:14:59.437Z,15.55
2023-05-03T07:16:03.915Z,15.29
2023-05-03T07:17:00.802Z,15.18
2023-05-03T07:18:01.326Z,15.07
2023-05-03T07:19:02.066Z,15.02
2023-05-03T07:20:02.555Z,14.92
2023-05-03T07:21:02.435Z,14.9
2023-05-03T07:22:02.741Z,14.99
2023-05-03T07:23:03.644Z,15.1
2023-05-03T07:24:04.750Z,15.25
2023-05-03T07:25:05.946Z,15.32
2023-05-03T07:26:06.018Z,15.41
2023-05-03T07:27:06.787Z,15.48
2023-05-03T07:28:07.800Z,15.39
2023-05-03T07:29:08.030Z,15.36
2023-05-03T07:30:09.505Z,15.17
2023-05-03T07:31:09.396Z,15.18
2023-05-03T07:32:10.163Z,15.32
2023-05-03T07:33:10.691Z,15.15
2023-05-03T07:34:11.149Z,15.22
2023-05-03T07:35:11.857Z,15.14
2023-05-03T07:36:12.499Z,15.12
2023-05-03T07:37:13.314Z,15.05
2023-05-03T07:38:14.224Z,15.04
2023-05-03T07:39:14.440Z,14.99
2023-05-03T07:40:15.163Z,14.78
2023-05-03T07:41:16.142Z,14.89
2023-05-03T07:42:16.989Z,14.81
2023-05-03T07:43:17.794Z,14.94
2023-05-03T07:44:18.703Z,14.78
2023-05-03T07:45:18.669Z,14.7
2023-05-03T07:46:20.066Z,14.61
2023-05-03T07:47:20.385Z,14.53
2023-05-03T07:48:20.733Z,14.79
2023-05-03T07:49:21.355Z,14.66
2023-05-03T07:50:21.687Z,14.66
2023-05-03T07:51:22.418Z,14.7
2023-05-03T07:52:23.236Z,14.87
2023-05-03T07:53:23.390Z,14.87
2023-05-03T07:54:24.169Z,14.71
2023-05-03T07:55:24.974Z,14.63
2023-05-03T07:56:25.946Z,14.53
2023-05-03T07:57:26.782Z,14.49
2023-05-03T07:58:43.641Z,14.4
2023-05-03T07:59:42.438Z,14.41
2023-05-03T08:00:43.307Z,14.43
2023-05-03T08:01:44.212Z,14.44
2023-05-03T08:02:45.434Z,14.66
2023-05-03T08:03:46.707Z,14.67
2023-05-03T08:04:46.863Z,14.74
2023-05-03T08:05:47.331Z,14.93
2023-05-03T08:06:48.187Z,14.96
2023-05-03T08:07:48.373Z,15.08
2023-05-03T08:08:48.305Z,15.02
2023-05-03T08:09:49.207Z,15.18
2023-05-03T08:10:50.129Z,15.32
2023-05-03T08:11:51.469Z,15.33
2023-05-03T08:12:51.654Z,15.65
2023-05-03T08:13:52.057Z,15.81
2023-05-03T08:14:52.771Z,15.75
2023-05-03T08:15:53.465Z,15.8
2023-05-03T08:16:54.577Z,15.9
2023-05-03T08:17:55.749Z,16.17
2023-05-03T08:18:56.222Z,16.46
2023-05-03T08:19:56.630Z,16.47
2023-05-03T08:20:57.182Z,16.58
2023-05-03T08:21:58.115Z,16.83
2023-05-03T08:22:58.706Z,17.1
2023-05-03T08:23:59.060Z,17.23
2023-05-03T08:25:00.304Z,17.35
2023-05-03T08:26:00.226Z,17.17
2023-05-03T08:27:00.640Z,17.24
2023-05-03T08:28:00.810Z,17.07
2023-05-03T08:29:00.787Z,16.91
2023-05-03T08:30:02.363Z,16.83
2023-05-03T08:31:02.678Z,16.74
2023-05-03T08:32:03.655Z,16.74
2023-05-03T08:33:04.815Z,16.83
2023-05-03T08:34:04.928Z,16.95
2023-05-03T08:35:06.073Z,16.94
2023-05-03T08:36:06.072Z,17.01
2023-05-03T08:37:06.820Z,17.16
2023-05-03T08:38:06.556Z,17.13
2023-05-03T08:39:07.472Z,17.02
2023-05-03T08:40:08.480Z,17.01
2023-05-03T08:41:08.436Z,17.04
2023-05-03T08:42:09.267Z,16.99
2023-05-03T08:43:10.274Z,17.02
2023-05-03T08:44:10.977Z,17.02
2023-05-03T08:45:11.908Z,17.23
2023-05-03T08:46:12.991Z,17.09
2023-05-03T08:47:12.976Z,16.84
2023-05-03T08:48:14.017Z,16.82
2023-05-03T08:49:14.238Z,16.62
2023-05-03T08:50:14.515Z,16.57
2023-05-03T08:51:15.244Z,16.51
2023-05-03T08:52:16.167Z,16.31
2023-05-03T08:53:16.683Z,16.32
2023-05-03T08:54:17.586Z,16.05
2023-05-03T08:55:18.236Z,16.57
2023-05-03T08:56:18.743Z,16.82
2023-05-03T08:57:19.754Z,16.66
2023-05-03T08:58:19.961Z,16.86
2023-05-03T08:59:20.736Z,17.39
2023-05-03T09:00:20.675Z,17.75
2023-05-03T09:01:21.764Z,17.78
2023-05-03T09:02:22.500Z,17.69
2023-05-03T09:03:23.120Z,17.53
2023-05-03T09:04:24.160Z,17.68
2023-05-03T09:05:24.542Z,18.03
2023-05-03T09:06:24.811Z,18
2023-05-03T09:07:24.926Z,17.93
2023-05-03T09:08:25.698Z,17.84
2023-05-03T09:09:26.632Z,17.76
2023-05-03T09:10:27.740Z,17.76
2023-05-03T09:11:28.465Z,18.05
2023-05-03T09:12:28.764Z,18.58
2023-05-03T09:13:29.012Z,18.57
2023-05-03T09:14:29.760Z,18.31
2023-05-03T09:15:31.109Z,18.78
2023-05-03T09:16:31.426Z,19.42
2023-05-03T09:17:31.914Z,19.97
2023-05-03T09:18:32.938Z,20.34
2023-05-03T09:19:33.718Z,20.37
2023-05-03T09:20:34.018Z,20.12
2023-05-03T09:21:35.138Z,20
2023-05-03T09:22:35.069Z,19.96
2023-05-03T09:23:36.083Z,19.63
2023-05-03T09:24:35.981Z,19.47
2023-05-03T09:25:37.174Z,19.34
2023-05-03T09:26:37.973Z,19.17
2023-05-03T09:27:37.994Z,19.08
2023-05-03T09:28:38.815Z,18.96
2023-05-03T09:29:39.344Z,18.88
2023-05-03T09:30:40.520Z,18.71
2023-05-03T09:31:41.624Z,18.7
2023-05-03T09:32:41.843Z,18.79
2023-05-03T09:33:42.588Z,18.64
2023-05-03T09:34:43.576Z,18.66
2023-05-03T09:35:44.125Z,18.52
2023-05-03T09:36:45.054Z,18.33
2023-05-03T09:37:45.785Z,18.21
2023-05-03T09:38:46.867Z,18.15
2023-05-03T09:39:47.996Z,18.21
2023-05-03T09:40:48.435Z,18.11
2023-05-03T09:41:49.158Z,18.03
2023-05-03T09:42:49.947Z,18.06
2023-05-03T09:43:50.902Z,18.19
2023-05-03T09:44:51.967Z,18.18
2023-05-03T09:45:53.099Z,18.19
2023-05-03T09:46:53.310Z,18.18
2023-05-03T09:47:54.198Z,18.13
2023-05-03T09:49:55.499Z,18.23
2023-05-03T09:50:56.308Z,18.15
2023-05-03T09:51:57.114Z,18.18
2023-05-03T09:52:57.977Z,18.15
2023-05-03T09:53:58.514Z,18.11
2023-05-03T09:54:59.481Z,18.19
2023-05-03T09:55:59.401Z,18.31
2023-05-03T09:57:00.205Z,18.18
2023-05-03T09:58:01.110Z,18.16
2023-05-03T09:59:01.303Z,18.71
2023-05-03T10:00:02.045Z,19.04
2023-05-03T10:01:02.842Z,19.23
2023-05-03T10:02:03.921Z,19.6
2023-05-03T10:03:04.598Z,19.87
2023-05-03T10:04:05.699Z,19.99
2023-05-03T10:05:06.341Z,20.02
2023-05-03T10:06:06.456Z,19.96
2023-05-03T10:07:07.736Z,19.6
2023-05-03T10:08:07.700Z,19.35
2023-05-03T10:09:08.486Z,19.16
2023-05-03T10:10:09.224Z,19.11
2023-05-03T10:11:10.014Z,19.09
2023-05-03T10:12:11.096Z,18.94
2023-05-03T10:13:12.962Z,19.04
2023-05-03T10:14:12.659Z,18.98
2023-05-03T10:15:13.410Z,18.96
2023-05-03T10:16:14.474Z,18.91
2023-05-03T10:17:14.701Z,18.94
2023-05-03T10:18:15.500Z,18.76
2023-05-03T10:19:17.611Z,18.71
2023-05-03T10:22:17.962Z,18.85
2023-05-03T10:23:19.021Z,18.97
2023-05-03T10:24:19.231Z,19.44
2023-05-03T10:25:21.679Z,19.9
2023-05-03T10:27:19.814Z,20.6
2023-05-03T10:28:20.797Z,20.71
2023-05-03T10:29:21.754Z,20.86
2023-05-03T10:30:22.478Z,21.25
2023-05-03T10:31:23.196Z,21.4
2023-05-03T10:32:24.113Z,21.63
2023-05-03T10:33:24.182Z,21.41
2023-05-03T10:34:24.868Z,20.98
2023-05-03T10:35:24.868Z,20.64
2023-05-03T10:36:42.192Z,20.39
2023-05-03T10:37:26.437Z,20.12
2023-05-03T10:38:27.391Z,19.94
2023-05-03T10:39:28.378Z,19.67
2023-05-03T10:40:29.147Z,19.64
2023-05-03T10:41:29.823Z,19.48
2023-05-03T10:42:30.347Z,19.04
2023-05-03T10:43:31.057Z,18.73
2023-05-03T10:44:31.653Z,18.63
2023-05-03T10:45:32.380Z,18.43
2023-05-03T10:46:33.473Z,18.68
2023-05-03T10:47:34.040Z,18.98
2023-05-03T10:48:34.108Z,19.08
2023-05-03T10:49:34.830Z,19.26
2023-05-03T10:50:35.900Z,19.63
2023-05-03T10:51:37.578Z,19.84
2023-05-03T10:52:37.422Z,19.87
2023-05-03T10:53:37.809Z,19.89
2023-05-03T10:54:38.550Z,19.85
2023-05-03T10:55:39.460Z,19.87
2023-05-03T10:56:39.973Z,19.77
2023-05-03T10:57:40.887Z,19.45
2023-05-03T10:58:41.906Z,19.38
2023-05-03T10:59:42.932Z,19.19
2023-05-03T11:00:43.670Z,18.97
2023-05-03T11:01:44.558Z,18.89
2023-05-03T11:02:45.361Z,18.78
2023-05-03T11:03:46.023Z,18.79
2023-05-03T11:04:47.493Z,18.78
2023-05-03T11:05:47.445Z,18.89
2023-05-03T11:06:47.809Z,18.88
2023-05-03T11:07:47.924Z,18.86
2023-05-03T11:08:47.860Z,18.96
2023-05-03T11:09:48.946Z,19.11
2023-05-03T11:10:49.869Z,19.49
2023-05-03T11:11:50.259Z,19.64
2023-05-03T11:12:50.883Z,19.77
2023-05-03T11:13:52.017Z,19.75
2023-05-03T11:14:52.942Z,19.81
2023-05-03T11:15:54.303Z,19.57
2023-05-03T11:16:54.577Z,19.32
2023-05-03T11:17:54.249Z,19.17
2023-05-03T11:18:54.933Z,19.08
2023-05-03T11:19:55.675Z,19.07
2023-05-03T11:20:56.870Z,19.07
2023-05-03T11:21:57.617Z,19.17
2023-05-03T11:22:58.722Z,19.24
2023-05-03T11:23:59.666Z,19.29
2023-05-03T11:24:59.715Z,19.27
2023-05-03T11:25:59.722Z,19.17
2023-05-03T11:27:08.739Z,19.12
2023-05-03T11:28:01.526Z,19.08
2023-05-03T11:29:02.476Z,18.91
2023-05-03T11:30:02.465Z,18.86
2023-05-03T11:31:03.645Z,18.85
2023-05-03T11:32:04.807Z,18.92
2023-05-03T11:33:04.835Z,18.89
2023-05-03T11:34:05.159Z,18.88
2023-05-03T11:35:06.479Z,19.07
2023-05-03T11:36:06.624Z,18.96
2023-05-03T11:37:06.587Z,18.96
2023-05-03T11:38:07.555Z,18.91
2023-05-03T11:39:08.285Z,18.76
2023-05-03T11:40:09.216Z,18.71
2023-05-03T11:41:09.473Z,18.76
2023-05-03T11:42:10.195Z,18.7
2023-05-03T11:43:11.012Z,18.71
2023-05-03T11:44:22.827Z,18.61
2023-05-03T11:46:14.125Z,18.6
2023-05-03T11:47:14.774Z,18.51
2023-05-03T11:48:15.269Z,18.51
2023-05-03T11:49:15.116Z,18.57
2023-05-03T11:50:16.223Z,18.79
2023-05-03T11:51:17.439Z,18.92
2023-05-03T11:52:18.320Z,19.15
2023-05-03T11:53:18.274Z,19.41
2023-05-03T11:54:28.177Z,19.55
2023-05-03T11:56:20.668Z,19.92
2023-05-03T11:57:21.082Z,20.15
2023-05-03T11:58:21.416Z,20.53
2023-05-03T11:59:22.747Z,20.88
2023-05-03T12:00:23.368Z,21.19
2023-05-03T12:01:23.192Z,21.41
2023-05-03T12:02:24.111Z,21.33
2023-05-03T12:03:31.566Z,21.37
2023-05-03T12:04:26.172Z,21.13
2023-05-03T12:05:27.711Z,20.89
2023-05-03T12:06:28.958Z,20.7
2023-05-03T12:07:30.482Z,20.48
2023-05-03T12:08:30.665Z,20.24
2023-05-03T12:09:30.369Z,20.12
2023-05-03T12:10:32.977Z,20.24
2023-05-03T12:11:36.825Z,20.29
2023-05-03T12:12:50.142Z,20.4
2023-05-03T12:13:41.533Z,20.24
2023-05-03T12:14:41.468Z,20.19
2023-05-03T12:15:46.426Z,20.29
2023-05-03T12:17:46.169Z,20.37
2023-05-03T12:18:47.908Z,20.63
2023-05-03T12:19:45.480Z,20.89
2023-05-03T12:21:28.091Z,21.15
2023-05-03T12:22:04.350Z,21.37
2023-05-03T12:23:15.528Z,21.48
2023-05-03T12:24:15.277Z,21.7
2023-05-03T12:25:16.581Z,21.66
2023-05-03T12:26:17.449Z,21.81
2023-05-03T12:28:21.586Z,22.07
2023-05-03T12:29:19.977Z,21.88
2023-05-03T12:30:18.553Z,22.01
2023-05-03T12:31:21.130Z,21.88
2023-05-03T12:34:41.636Z,21.75
2023-05-03T12:36:21.582Z,21.83
2023-05-03T12:37:26.019Z,21.97
2023-05-03T12:38:24.584Z,22.01
2023-05-03T12:39:22.654Z,22.01
2023-05-03T12:40:38.933Z,21.81
2023-05-03T12:43:22.634Z,21.03
2023-05-03T12:44:24.321Z,20.63
2023-05-03T12:45:28.739Z,20.59
2023-05-03T12:46:44.026Z,20.39
2023-05-03T12:48:25.362Z,20.39
2023-05-03T12:49:29.143Z,20.26
2023-05-03T12:50:34.386Z,20.34
2023-05-03T12:51:34.003Z,20.22
2023-05-03T12:52:45.313Z,20.3
2023-05-03T12:54:42.693Z,20.66
2023-05-03T12:55:52.183Z,20.74
2023-05-03T12:56:48.335Z,20.78
2023-05-03T12:57:54.960Z,20.82
2023-05-03T13:00:26.259Z,20.73
2023-05-03T13:04:57.555Z,20.55
2023-05-03T13:07:07.554Z,20.4
2023-05-03T13:09:03.742Z,20.17
2023-05-03T13:12:01.765Z,20.07
2023-05-03T13:13:01.759Z,20.02
2023-05-03T13:14:01.679Z,20.08
2023-05-03T13:15:03.938Z,20.03
2023-05-03T13:17:03.033Z,20.4
2023-05-03T13:18:03.537Z,20.63
2023-05-03T13:19:03.768Z,20.82
2023-05-03T13:20:04.529Z,20.92
2023-05-03T13:21:05.321Z,21.03
2023-05-03T13:22:05.840Z,21.26
2023-05-03T13:23:06.816Z,21.5
2023-05-03T13:24:07.767Z,21.69
2023-05-03T13:25:09.338Z,21.81
2023-05-03T13:26:09.846Z,21.81
2023-05-03T13:27:10.654Z,22
2023-05-03T13:28:11.530Z,22.23
2023-05-03T13:29:12.459Z,22.23
2023-05-03T13:30:13.194Z,22.49
2023-05-03T13:31:13.784Z,22.58
2023-05-03T13:32:14.636Z,22.67
2023-05-03T13:33:14.422Z,22.55
2023-05-03T13:34:14.813Z,22.33
2023-05-03T13:35:14.604Z,22.08
2023-05-03T13:36:15.624Z,21.94
2023-05-03T13:37:16.120Z,21.72
2023-05-03T13:38:16.716Z,21.48
2023-05-03T13:39:17.454Z,21.26
2023-05-03T13:40:18.395Z,21.17
2023-05-03T13:41:19.014Z,21.14
2023-05-03T13:42:19.984Z,21.07
2023-05-03T13:43:20.280Z,20.9
2023-05-03T13:44:21.242Z,20.67
2023-05-03T13:45:21.242Z,20.56
2023-05-03T13:46:22.041Z,20.59
2023-05-03T13:47:22.449Z,20.42
2023-05-03T13:48:25.350Z,20.5